sensor_id;sensor_type;location;lat;lon;timestamp;pressure;altitude;pressure_sealevel;temperature;humidity
13367;BME280;6752;52.612;13.630;2023-12-07T00:01:43;101033.19;;;1.10;100.00
13367;BME280;6752;52.612;13.630;2023-12-07T00:06:45;101029.73;;;1.09;100.00
13367;BME280;6752;52.612;13.630;2023-12-07T00:11:47;101035.06;;;1.14;100.00
13367;BME280;6752;52.612;13.630;2023-12-07T00:16:50;101033.91;;;1.16;100.00
13367;BME280;6752;52.612;13.630;2023-12-07T00:21:52;101039.44;;;1.15;100.00
13367;BME280;6752;52.612;13.630;2023-12-07T00:26:55;101042.12;;;1.19;100.00
13367;BME280;6752;52.612;13.630;2023-12-07T00:31:57;101039.97;;;1.09;100.00
13367;BME280;6752;52.612;13.630;2023-12-07T00:36:59;101037.48;;;1.12;100.00
13367;BME280;6752;52.612;13.630;2023-12-07T00:42:02;101043.04;;;1.05;100.00
13367;BME280;6752;52.612;13.630;2023-12-07T00:47:04;101047.61;;;1.09;100.00
13367;BME280;6752;52.612;13.630;2023-12-07T00:52:06;101054.86;;;1.13;100.00
13367;BME280;6752;52.612;13.630;2023-12-07T00:57:09;101056.53;;;1.05;100.00
13367;BME280;6752;52.612;13.630;2023-12-07T01:02:11;101058.45;;;1.03;100.00
13367;BME280;6752;52.612;13.630;2023-12-07T01:07:13;101060.30;;;1.12;100.00
13367;BME280;6752;52.612;13.630;2023-12-07T01:12:16;101057.89;;;1.14;100.00
13367;BME280;6752;52.612;13.630;2023-12-07T01:17:18;101064.21;;;1.08;100.00
13367;BME280;6752;52.612;13.630;2023-12-07T01:22:21;101065.51;;;1.04;100.00
13367;BME280;6752;52.612;13.630;2023-12-07T01:27:23;101081.08;;;1.01;100.00
13367;BME280;6752;52.612;13.630;2023-12-07T01:32:25;101093.56;;;1.15;100.00
13367;BME280;6752;52.612;13.630;2023-12-07T01:37:28;101095.78;;;1.11;100.00
13367;BME280;6752;52.612;13.630;2023-12-07T01:42:30;101095.51;;;1.09;100.00
13367;BME280;6752;52.612;13.630;2023-12-07T01:47:33;101101.48;;;1.03;100.00
13367;BME280;6752;52.612;13.630;2023-12-07T01:52:35;101108.69;;;1.02;100.00
13367;BME280;6752;52.612;13.630;2023-12-07T01:57:37;101113.59;;;0.98;100.00
13367;BME280;6752;52.612;13.630;2023-12-07T02:02:40;101120.24;;;1.07;100.00
13367;BME280;6752;52.612;13.630;2023-12-07T02:07:42;101128.80;;;1.07;100.00
13367;BME280;6752;52.612;13.630;2023-12-07T02:12:44;101114.91;;;1.03;100.00
13367;BME280;6752;52.612;13.630;2023-12-07T02:17:49;101111.64;;;1.04;100.00
13367;BME280;6752;52.612;13.630;2023-12-07T02:22:52;101116.55;;;1.00;100.00
13367;BME280;6752;52.612;13.630;2023-12-07T02:27:54;101131.93;;;1.02;100.00
13367;BME280;6752;52.612;13.630;2023-12-07T02:32:56;101128.64;;;1.08;100.00
13367;BME280;6752;52.612;13.630;2023-12-07T02:37:59;101122.76;;;1.00;100.00
13367;BME280;6752;52.612;13.630;2023-12-07T02:43:01;101128.55;;;1.00;100.00
13367;BME280;6752;52.612;13.630;2023-12-07T02:48:04;101137.12;;;1.09;100.00
13367;BME280;6752;52.612;13.630;2023-12-07T02:53:06;101144.95;;;1.11;100.00
13367;BME280;6752;52.612;13.630;2023-12-07T02:58:08;101146.20;;;1.03;100.00
13367;BME280;6752;52.612;13.630;2023-12-07T03:03:11;101156.39;;;1.13;100.00
13367;BME280;6752;52.612;13.630;2023-12-07T03:08:13;101148.86;;;1.08;100.00
13367;BME280;6752;52.612;13.630;2023-12-07T03:13:15;101163.98;;;1.18;100.00
13367;BME280;6752;52.612;13.630;2023-12-07T03:18:18;101155.42;;;1.09;100.00
13367;BME280;6752;52.612;13.630;2023-12-07T03:23:20;101158.25;;;1.08;100.00
13367;BME280;6752;52.612;13.630;2023-12-07T03:28:23;101171.28;;;1.16;100.00
13367;BME280;6752;52.612;13.630;2023-12-07T03:33:25;101170.73;;;1.13;100.00
13367;BME280;6752;52.612;13.630;2023-12-07T03:38:27;101173.12;;;1.02;100.00
13367;BME280;6752;52.612;13.630;2023-12-07T03:43:30;101175.01;;;1.06;100.00
13367;BME280;6752;52.612;13.630;2023-12-07T03:48:32;101178.22;;;1.19;100.00
13367;BME280;6752;52.612;13.630;2023-12-07T03:53:34;101187.64;;;1.09;100.00
13367;BME280;6752;52.612;13.630;2023-12-07T03:58:37;101190.13;;;1.25;100.00
13367;BME280;6752;52.612;13.630;2023-12-07T04:03:39;101190.69;;;1.43;100.00
13367;BME280;6752;52.612;13.630;2023-12-07T04:08:41;101190.14;;;1.34;100.00
13367;BME280;6752;52.612;13.630;2023-12-07T04:13:44;101180.62;;;1.31;100.00
13367;BME280;6752;52.612;13.630;2023-12-07T04:18:46;101185.52;;;1.27;100.00
13367;BME280;6752;52.612;13.630;2023-12-07T04:23:49;101184.02;;;1.19;100.00
13367;BME280;6752;52.612;13.630;2023-12-07T04:28:51;101189.30;;;1.15;100.00
13367;BME280;6752;52.612;13.630;2023-12-07T04:33:53;101195.84;;;1.08;100.00
13367;BME280;6752;52.612;13.630;2023-12-07T04:38:56;101202.53;;;1.13;100.00
13367;BME280;6752;52.612;13.630;2023-12-07T04:43:58;101216.95;;;1.12;100.00
13367;BME280;6752;52.612;13.630;2023-12-07T04:49:00;101217.73;;;1.08;100.00
13367;BME280;6752;52.612;13.630;2023-12-07T04:54:03;101224.94;;;1.31;100.00
13367;BME280;6752;52.612;13.630;2023-12-07T04:59:05;101228.67;;;1.34;100.00
13367;BME280;6752;52.612;13.630;2023-12-07T05:04:07;101230.86;;;1.34;100.00
13367;BME280;6752;52.612;13.630;2023-12-07T05:09:10;101234.22;;;1.46;100.00
13367;BME280;6752;52.612;13.630;2023-12-07T05:14:12;101234.56;;;1.29;100.00
13367;BME280;6752;52.612;13.630;2023-12-07T05:19:15;101243.08;;;1.43;100.00
13367;BME280;6752;52.612;13.630;2023-12-07T05:24:17;101233.52;;;1.44;100.00
13367;BME280;6752;52.612;13.630;2023-12-07T05:29:19;101239.81;;;1.39;100.00
13367;BME280;6752;52.612;13.630;2023-12-07T05:34:22;101234.59;;;1.42;100.00
13367;BME280;6752;52.612;13.630;2023-12-07T05:39:24;101238.77;;;1.36;100.00
13367;BME280;6752;52.612;13.630;2023-12-07T05:44:26;101247.45;;;1.39;100.00
13367;BME280;6752;52.612;13.630;2023-12-07T05:49:29;101238.91;;;1.34;100.00
13367;BME280;6752;52.612;13.630;2023-12-07T05:54:31;101246.20;;;1.19;100.00
13367;BME280;6752;52.612;13.630;2023-12-07T05:59:36;101242.79;;;1.22;100.00
13367;BME280;6752;52.612;13.630;2023-12-07T06:04:36;101240.78;;;1.29;100.00
13367;BME280;6752;52.612;13.630;2023-12-07T06:09:38;101238.86;;;1.30;100.00
13367;BME280;6752;52.612;13.630;2023-12-07T06:14:41;101250.70;;;1.24;100.00
13367;BME280;6752;52.612;13.630;2023-12-07T06:19:43;101260.67;;;1.12;100.00
13367;BME280;6752;52.612;13.630;2023-12-07T06:24:45;101267.69;;;1.10;100.00
13367;BME280;6752;52.612;13.630;2023-12-07T06:29:48;101267.38;;;1.22;100.00
13367;BME280;6752;52.612;13.630;2023-12-07T06:34:50;101280.09;;;1.25;100.00
13367;BME280;6752;52.612;13.630;2023-12-07T06:39:52;101276.32;;;1.32;100.00
13367;BME280;6752;52.612;13.630;2023-12-07T06:44:55;101295.25;;;1.35;100.00
13367;BME280;6752;52.612;13.630;2023-12-07T06:49:57;101293.91;;;1.35;100.00
13367;BME280;6752;52.612;13.630;2023-12-07T06:55:00;101297.16;;;1.34;100.00
13367;BME280;6752;52.612;13.630;2023-12-07T07:00:02;101302.44;;;1.39;100.00
13367;BME280;6752;52.612;13.630;2023-12-07T07:05:04;101304.64;;;1.45;100.00
13367;BME280;6752;52.612;13.630;2023-12-07T07:10:07;101301.52;;;1.40;100.00
13367;BME280;6752;52.612;13.630;2023-12-07T07:15:09;101311.71;;;1.36;100.00
13367;BME280;6752;52.612;13.630;2023-12-07T07:20:11;101308.22;;;1.49;100.00
13367;BME280;6752;52.612;13.630;2023-12-07T07:25:14;101312.75;;;1.49;100.00
13367;BME280;6752;52.612;13.630;2023-12-07T07:30:19;101313.77;;;1.57;100.00
13367;BME280;6752;52.612;13.630;2023-12-07T07:35:21;101302.77;;;1.50;100.00
13367;BME280;6752;52.612;13.630;2023-12-07T07:40:24;101317.55;;;1.50;100.00
13367;BME280;6752;52.612;13.630;2023-12-07T07:45:26;101310.69;;;1.65;100.00
13367;BME280;6752;52.612;13.630;2023-12-07T07:50:29;101313.75;;;1.62;100.00
13367;BME280;6752;52.612;13.630;2023-12-07T07:55:31;101309.40;;;1.74;100.00
13367;BME280;6752;52.612;13.630;2023-12-07T08:00:33;101316.21;;;1.64;100.00
13367;BME280;6752;52.612;13.630;2023-12-07T08:05:36;101313.77;;;1.57;100.00
13367;BME280;6752;52.612;13.630;2023-12-07T08:10:38;101325.47;;;1.65;100.00
13367;BME280;6752;52.612;13.630;2023-12-07T08:15:40;101327.53;;;1.63;100.00
13367;BME280;6752;52.612;13.630;2023-12-07T08:20:43;101338.30;;;1.58;100.00
13367;BME280;6752;52.612;13.630;2023-12-07T08:25:45;101327.91;;;1.77;100.00
13367;BME280;6752;52.612;13.630;2023-12-07T08:30:48;101322.15;;;2.00;100.00
13367;BME280;6752;52.612;13.630;2023-12-07T08:35:50;101332.77;;;2.10;100.00
13367;BME280;6752;52.612;13.630;2023-12-07T08:40:52;101341.31;;;2.01;100.00
13367;BME280;6752;52.612;13.630;2023-12-07T08:45:55;101351.48;;;2.21;100.00
13367;BME280;6752;52.612;13.630;2023-12-07T08:50:57;101355.25;;;2.28;100.00
13367;BME280;6752;52.612;13.630;2023-12-07T08:55:59;101351.45;;;2.34;100.00
13367;BME280;6752;52.612;13.630;2023-12-07T09:01:02;101351.60;;;2.38;100.00
13367;BME280;6752;52.612;13.630;2023-12-07T09:06:04;101355.63;;;2.60;100.00
13367;BME280;6752;52.612;13.630;2023-12-07T09:11:06;101358.87;;;2.59;100.00
13367;BME280;6752;52.612;13.630;2023-12-07T09:16:09;101353.13;;;2.63;100.00
13367;BME280;6752;52.612;13.630;2023-12-07T09:21:11;101370.20;;;2.63;100.00
13367;BME280;6752;52.612;13.630;2023-12-07T09:26:14;101361.81;;;2.74;100.00
13367;BME280;6752;52.612;13.630;2023-12-07T09:31:16;101360.73;;;2.94;100.00
13367;BME280;6752;52.612;13.630;2023-12-07T09:36:18;101359.08;;;2.97;100.00
13367;BME280;6752;52.612;13.630;2023-12-07T09:41:21;101364.09;;;3.10;100.00
13367;BME280;6752;52.612;13.630;2023-12-07T09:46:23;101362.61;;;2.80;100.00
13367;BME280;6752;52.612;13.630;2023-12-07T09:51:25;101366.44;;;3.09;100.00
13367;BME280;6752;52.612;13.630;2023-12-07T09:56:28;101374.59;;;3.08;100.00
13367;BME280;6752;52.612;13.630;2023-12-07T10:01:30;101382.73;;;2.98;100.00
13367;BME280;6752;52.612;13.630;2023-12-07T10:06:41;101380.77;;;3.04;100.00
13367;BME280;6752;52.612;13.630;2023-12-07T10:11:35;101383.77;;;3.01;100.00
13367;BME280;6752;52.612;13.630;2023-12-07T10:16:37;101380.42;;;2.77;100.00
13367;BME280;6752;52.612;13.630;2023-12-07T10:21:40;101380.91;;;2.90;100.00
13367;BME280;6752;52.612;13.630;2023-12-07T10:26:42;101372.65;;;2.83;100.00
13367;BME280;6752;52.612;13.630;2023-12-07T10:31:44;101375.30;;;3.05;100.00
13367;BME280;6752;52.612;13.630;2023-12-07T10:36:47;101364.17;;;3.22;100.00
13367;BME280;6752;52.612;13.630;2023-12-07T10:41:49;101370.13;;;3.08;100.00
13367;BME280;6752;52.612;13.630;2023-12-07T10:46:51;101371.61;;;3.15;100.00
13367;BME280;6752;52.612;13.630;2023-12-07T10:52:00;101369.63;;;3.08;100.00
13367;BME280;6752;52.612;13.630;2023-12-07T10:57:02;101368.00;;;3.15;100.00
13367;BME280;6752;52.612;13.630;2023-12-07T11:02:04;101372.88;;;3.16;100.00
13367;BME280;6752;52.612;13.630;2023-12-07T11:07:07;101365.22;;;3.16;100.00
13367;BME280;6752;52.612;13.630;2023-12-07T11:12:11;101360.88;;;2.84;100.00
13367;BME280;6752;52.612;13.630;2023-12-07T11:17:11;101366.73;;;2.79;100.00
13367;BME280;6752;52.612;13.630;2023-12-07T11:22:14;101360.86;;;2.88;100.00
13367;BME280;6752;52.612;13.630;2023-12-07T11:27:16;101352.65;;;3.12;100.00
13367;BME280;6752;52.612;13.630;2023-12-07T11:32:19;101342.95;;;2.83;100.00
13367;BME280;6752;52.612;13.630;2023-12-07T11:37:21;101353.53;;;2.81;100.00
13367;BME280;6752;52.612;13.630;2023-12-07T11:42:23;101341.08;;;3.19;100.00
13367;BME280;6752;52.612;13.630;2023-12-07T11:47:26;101340.23;;;2.97;100.00
13367;BME280;6752;52.612;13.630;2023-12-07T11:52:28;101335.03;;;3.08;100.00
13367;BME280;6752;52.612;13.630;2023-12-07T11:57:30;101334.04;;;3.48;100.00
13367;BME280;6752;52.612;13.630;2023-12-07T12:02:33;101343.38;;;3.32;100.00
13367;BME280;6752;52.612;13.630;2023-12-07T12:07:35;101344.33;;;3.36;100.00
13367;BME280;6752;52.612;13.630;2023-12-07T12:12:37;101346.52;;;3.28;100.00
13367;BME280;6752;52.612;13.630;2023-12-07T12:17:40;101350.83;;;3.16;100.00
13367;BME280;6752;52.612;13.630;2023-12-07T12:22:43;101344.15;;;3.24;100.00
13367;BME280;6752;52.612;13.630;2023-12-07T12:27:45;101349.75;;;3.18;100.00
13367;BME280;6752;52.612;13.630;2023-12-07T12:32:47;101344.97;;;2.90;100.00
13367;BME280;6752;52.612;13.630;2023-12-07T12:37:50;101345.87;;;2.99;100.00
13367;BME280;6752;52.612;13.630;2023-12-07T12:42:52;101348.39;;;2.96;100.00
13367;BME280;6752;52.612;13.630;2023-12-07T12:47:54;101347.12;;;2.96;100.00
13367;BME280;6752;52.612;13.630;2023-12-07T12:52:57;101345.72;;;3.00;100.00
13367;BME280;6752;52.612;13.630;2023-12-07T12:57:59;101345.95;;;2.85;100.00
13367;BME280;6752;52.612;13.630;2023-12-07T13:03:05;101351.19;;;3.00;100.00
13367;BME280;6752;52.612;13.630;2023-12-07T13:08:03;101351.09;;;2.87;100.00
13367;BME280;6752;52.612;13.630;2023-12-07T13:13:06;101340.36;;;3.04;100.00
13367;BME280;6752;52.612;13.630;2023-12-07T13:18:08;101342.36;;;2.89;100.00
13367;BME280;6752;52.612;13.630;2023-12-07T13:23:11;101334.61;;;2.99;100.00
13367;BME280;6752;52.612;13.630;2023-12-07T13:28:13;101347.07;;;2.83;100.00
13367;BME280;6752;52.612;13.630;2023-12-07T13:33:15;101345.61;;;2.79;100.00
13367;BME280;6752;52.612;13.630;2023-12-07T13:38:18;101346.29;;;2.86;100.00
13367;BME280;6752;52.612;13.630;2023-12-07T13:43:20;101334.69;;;2.81;100.00
13367;BME280;6752;52.612;13.630;2023-12-07T13:48:22;101339.42;;;2.74;100.00
13367;BME280;6752;52.612;13.630;2023-12-07T13:53:25;101345.92;;;2.76;100.00
13367;BME280;6752;52.612;13.630;2023-12-07T13:58:27;101351.86;;;2.62;100.00
13367;BME280;6752;52.612;13.630;2023-12-07T14:03:30;101362.98;;;2.58;100.00
13367;BME280;6752;52.612;13.630;2023-12-07T14:08:32;101366.36;;;2.42;100.00
13367;BME280;6752;52.612;13.630;2023-12-07T14:13:34;101367.94;;;2.40;100.00
13367;BME280;6752;52.612;13.630;2023-12-07T14:18:37;101375.59;;;2.40;100.00
13367;BME280;6752;52.612;13.630;2023-12-07T14:23:39;101384.12;;;2.30;100.00
13367;BME280;6752;52.612;13.630;2023-12-07T14:28:41;101374.59;;;2.27;100.00
13367;BME280;6752;52.612;13.630;2023-12-07T14:33:44;101376.97;;;2.03;100.00
13367;BME280;6752;52.612;13.630;2023-12-07T14:38:46;101370.05;;;2.00;100.00
13367;BME280;6752;52.612;13.630;2023-12-07T14:43:48;101376.90;;;1.90;100.00
13367;BME280;6752;52.612;13.630;2023-12-07T14:48:51;101370.73;;;1.93;100.00
13367;BME280;6752;52.612;13.630;2023-12-07T14:53:53;101370.97;;;2.00;100.00
13367;BME280;6752;52.612;13.630;2023-12-07T14:58:56;101366.95;;;2.09;100.00
13367;BME280;6752;52.612;13.630;2023-12-07T15:03:58;101376.33;;;1.91;100.00
13367;BME280;6752;52.612;13.630;2023-12-07T15:09:00;101383.77;;;1.83;100.00
13367;BME280;6752;52.612;13.630;2023-12-07T15:14:03;101385.16;;;1.92;100.00
13367;BME280;6752;52.612;13.630;2023-12-07T15:19:05;101375.18;;;1.94;100.00
13367;BME280;6752;52.612;13.630;2023-12-07T15:24:07;101375.27;;;1.83;100.00
13367;BME280;6752;52.612;13.630;2023-12-07T15:29:10;101378.56;;;1.96;100.00
13367;BME280;6752;52.612;13.630;2023-12-07T15:34:12;101366.23;;;1.79;100.00
13367;BME280;6752;52.612;13.630;2023-12-07T15:39:14;101364.20;;;1.77;100.00
13367;BME280;6752;52.612;13.630;2023-12-07T15:44:17;101361.11;;;1.72;100.00
13367;BME280;6752;52.612;13.630;2023-12-07T15:49:19;101351.57;;;1.64;100.00
13367;BME280;6752;52.612;13.630;2023-12-07T15:54:22;101351.20;;;1.73;100.00
13367;BME280;6752;52.612;13.630;2023-12-07T15:59:24;101349.39;;;1.68;100.00
13367;BME280;6752;52.612;13.630;2023-12-07T16:04:26;101354.55;;;1.61;100.00
13367;BME280;6752;52.612;13.630;2023-12-07T16:09:29;101354.00;;;1.58;100.00
13367;BME280;6752;52.612;13.630;2023-12-07T16:14:31;101348.45;;;1.50;100.00
13367;BME280;6752;52.612;13.630;2023-12-07T16:19:33;101347.14;;;1.59;100.00
13367;BME280;6752;52.612;13.630;2023-12-07T16:24:36;101349.41;;;1.59;100.00
13367;BME280;6752;52.612;13.630;2023-12-07T16:29:38;101342.72;;;1.73;100.00
13367;BME280;6752;52.612;13.630;2023-12-07T16:34:41;101356.45;;;1.65;100.00
13367;BME280;6752;52.612;13.630;2023-12-07T16:39:43;101354.12;;;1.61;100.00
13367;BME280;6752;52.612;13.630;2023-12-07T16:44:45;101349.30;;;1.64;100.00
13367;BME280;6752;52.612;13.630;2023-12-07T16:49:48;101358.38;;;1.68;100.00
13367;BME280;6752;52.612;13.630;2023-12-07T16:54:50;101348.38;;;1.65;100.00
13367;BME280;6752;52.612;13.630;2023-12-07T16:59:53;101356.06;;;1.55;100.00
13367;BME280;6752;52.612;13.630;2023-12-07T17:04:55;101352.73;;;1.57;100.00
13367;BME280;6752;52.612;13.630;2023-12-07T17:09:57;101353.80;;;1.55;100.00
13367;BME280;6752;52.612;13.630;2023-12-07T17:14:59;101362.78;;;1.55;100.00
13367;BME280;6752;52.612;13.630;2023-12-07T17:20:02;101371.52;;;1.62;100.00
13367;BME280;6752;52.612;13.630;2023-12-07T17:25:05;101363.59;;;1.65;100.00
13367;BME280;6752;52.612;13.630;2023-12-07T17:30:07;101362.95;;;1.72;100.00
13367;BME280;6752;52.612;13.630;2023-12-07T17:35:09;101359.05;;;1.89;100.00
13367;BME280;6752;52.612;13.630;2023-12-07T17:40:11;101370.37;;;1.74;100.00
13367;BME280;6752;52.612;13.630;2023-12-07T17:45:14;101378.17;;;1.62;100.00
13367;BME280;6752;52.612;13.630;2023-12-07T17:50:16;101391.65;;;1.76;100.00
13367;BME280;6752;52.612;13.630;2023-12-07T17:55:19;101397.06;;;1.66;100.00
13367;BME280;6752;52.612;13.630;2023-12-07T18:00:22;101403.84;;;1.84;100.00
13367;BME280;6752;52.612;13.630;2023-12-07T18:05:24;101392.89;;;1.68;100.00
13367;BME280;6752;52.612;13.630;2023-12-07T18:10:27;101372.36;;;1.72;100.00
13367;BME280;6752;52.612;13.630;2023-12-07T18:15:29;101366.77;;;1.64;100.00
13367;BME280;6752;52.612;13.630;2023-12-07T18:20:31;101365.80;;;1.61;100.00
13367;BME280;6752;52.612;13.630;2023-12-07T18:25:34;101369.34;;;1.66;100.00
13367;BME280;6752;52.612;13.630;2023-12-07T18:30:36;101365.91;;;1.74;100.00
13367;BME280;6752;52.612;13.630;2023-12-07T18:35:38;101375.77;;;1.59;100.00
13367;BME280;6752;52.612;13.630;2023-12-07T18:40:41;101364.92;;;1.51;100.00
13367;BME280;6752;52.612;13.630;2023-12-07T18:45:46;101357.09;;;1.44;100.00
13367;BME280;6752;52.612;13.630;2023-12-07T18:50:48;101369.26;;;1.43;100.00
13367;BME280;6752;52.612;13.630;2023-12-07T18:55:51;101362.25;;;1.46;100.00
13367;BME280;6752;52.612;13.630;2023-12-07T19:00:53;101350.44;;;1.48;100.00
13367;BME280;6752;52.612;13.630;2023-12-07T19:05:55;101343.09;;;1.45;100.00
13367;BME280;6752;52.612;13.630;2023-12-07T19:10:58;101360.77;;;1.48;100.00
13367;BME280;6752;52.612;13.630;2023-12-07T19:16:00;101357.67;;;1.43;100.00
13367;BME280;6752;52.612;13.630;2023-12-07T19:21:03;101347.12;;;1.45;100.00
13367;BME280;6752;52.612;13.630;2023-12-07T19:26:08;101339.41;;;1.46;100.00
13367;BME280;6752;52.612;13.630;2023-12-07T19:31:07;101342.38;;;1.38;100.00
13367;BME280;6752;52.612;13.630;2023-12-07T19:36:10;101332.90;;;1.49;100.00
13367;BME280;6752;52.612;13.630;2023-12-07T19:41:12;101325.54;;;1.51;100.00
13367;BME280;6752;52.612;13.630;2023-12-07T19:46:17;101323.45;;;1.59;100.00
13367;BME280;6752;52.612;13.630;2023-12-07T19:51:19;101325.31;;;1.53;100.00
13367;BME280;6752;52.612;13.630;2023-12-07T19:56:22;101313.32;;;1.48;100.00
13367;BME280;6752;52.612;13.630;2023-12-07T20:01:24;101306.33;;;1.60;100.00
13367;BME280;6752;52.612;13.630;2023-12-07T20:06:27;101306.73;;;1.51;100.00
13367;BME280;6752;52.612;13.630;2023-12-07T20:11:29;101296.83;;;1.51;100.00
13367;BME280;6752;52.612;13.630;2023-12-07T20:16:31;101288.69;;;1.52;100.00
13367;BME280;6752;52.612;13.630;2023-12-07T20:21:34;101283.72;;;1.57;100.00
13367;BME280;6752;52.612;13.630;2023-12-07T20:26:36;101281.72;;;1.41;100.00
13367;BME280;6752;52.612;13.630;2023-12-07T20:31:38;101273.52;;;1.47;100.00
13367;BME280;6752;52.612;13.630;2023-12-07T20:36:41;101272.77;;;1.36;100.00
13367;BME280;6752;52.612;13.630;2023-12-07T20:41:43;101272.13;;;1.43;100.00
13367;BME280;6752;52.612;13.630;2023-12-07T20:46:46;101267.72;;;1.47;100.00
13367;BME280;6752;52.612;13.630;2023-12-07T20:51:48;101278.61;;;1.41;100.00
13367;BME280;6752;52.612;13.630;2023-12-07T20:56:50;101278.99;;;1.55;100.00
13367;BME280;6752;52.612;13.630;2023-12-07T21:01:53;101273.80;;;1.49;100.00
13367;BME280;6752;52.612;13.630;2023-12-07T21:06:55;101279.20;;;1.34;100.00
13367;BME280;6752;52.612;13.630;2023-12-07T21:11:57;101264.34;;;1.45;100.00
13367;BME280;6752;52.612;13.630;2023-12-07T21:17:00;101267.30;;;1.42;100.00
13367;BME280;6752;52.612;13.630;2023-12-07T21:22:02;101263.42;;;1.45;100.00
13367;BME280;6752;52.612;13.630;2023-12-07T21:27:04;101256.50;;;1.38;100.00
13367;BME280;6752;52.612;13.630;2023-12-07T21:32:07;101252.34;;;1.34;100.00
13367;BME280;6752;52.612;13.630;2023-12-07T21:37:09;101253.02;;;1.28;100.00
13367;BME280;6752;52.612;13.630;2023-12-07T21:42:12;101249.36;;;1.24;100.00
13367;BME280;6752;52.612;13.630;2023-12-07T21:47:14;101243.61;;;1.28;100.00
13367;BME280;6752;52.612;13.630;2023-12-07T21:52:16;101246.52;;;1.25;100.00
13367;BME280;6752;52.612;13.630;2023-12-07T21:57:19;101247.53;;;1.15;100.00
13367;BME280;6752;52.612;13.630;2023-12-07T22:02:21;101243.37;;;1.11;100.00
13367;BME280;6752;52.612;13.630;2023-12-07T22:07:23;101251.23;;;1.09;100.00
13367;BME280;6752;52.612;13.630;2023-12-07T22:12:26;101252.20;;;1.13;100.00
13367;BME280;6752;52.612;13.630;2023-12-07T22:17:28;101238.69;;;1.23;100.00
13367;BME280;6752;52.612;13.630;2023-12-07T22:22:31;101243.36;;;1.21;100.00
13367;BME280;6752;52.612;13.630;2023-12-07T22:27:33;101238.61;;;1.24;100.00
13367;BME280;6752;52.612;13.630;2023-12-07T22:32:35;101242.22;;;1.23;100.00
13367;BME280;6752;52.612;13.630;2023-12-07T22:37:38;101228.99;;;1.26;100.00
13367;BME280;6752;52.612;13.630;2023-12-07T22:42:40;101229.66;;;1.14;100.00
13367;BME280;6752;52.612;13.630;2023-12-07T22:47:43;101224.08;;;1.12;100.00
13367;BME280;6752;52.612;13.630;2023-12-07T22:52:45;101221.27;;;1.08;100.00
13367;BME280;6752;52.612;13.630;2023-12-07T22:57:48;101216.40;;;1.08;100.00
13367;BME280;6752;52.612;13.630;2023-12-07T23:02:50;101202.20;;;1.07;100.00
13367;BME280;6752;52.612;13.630;2023-12-07T23:07:52;101212.67;;;1.05;100.00
13367;BME280;6752;52.612;13.630;2023-12-07T23:12:55;101210.16;;;1.12;100.00
13367;BME280;6752;52.612;13.630;2023-12-07T23:17:57;101209.36;;;1.02;100.00
13367;BME280;6752;52.612;13.630;2023-12-07T23:22:59;101205.23;;;1.08;100.00
13367;BME280;6752;52.612;13.630;2023-12-07T23:28:02;101186.31;;;1.04;100.00
13367;BME280;6752;52.612;13.630;2023-12-07T23:33:04;101190.84;;;1.04;100.00
13367;BME280;6752;52.612;13.630;2023-12-07T23:38:07;101179.03;;;1.06;100.00
13367;BME280;6752;52.612;13.630;2023-12-07T23:43:09;101180.34;;;0.97;100.00
13367;BME280;6752;52.612;13.630;2023-12-07T23:48:11;101165.63;;;1.15;100.00
13367;BME280;6752;52.612;13.630;2023-12-07T23:53:14;101146.49;;;1.18;100.00
13367;BME280;6752;52.612;13.630;2023-12-07T23:58:16;101140.35;;;1.12;100.00
